sensor_id;sensor_type;location;lat;lon;timestamp;pressure;altitude;pressure_sealevel;temperature;humidity
64687;BME280;51113;53.646;-113.674;2023-12-22T00:00:05;92943.63;;;0.85;80.01
64687;BME280;51113;53.646;-113.674;2023-12-22T00:02:34;92938.72;;;0.84;79.87
64687;BME280;51113;53.646;-113.674;2023-12-22T00:05:03;92940.59;;;0.77;80.11
64687;BME280;51113;53.646;-113.674;2023-12-22T00:07:31;92938.38;;;0.80;80.31
64687;BME280;51113;53.646;-113.674;2023-12-22T00:10:00;92927.03;;;0.76;79.88
64687;BME280;51113;53.646;-113.674;2023-12-22T00:12:28;92936.81;;;0.79;79.80
64687;BME280;51113;53.646;-113.674;2023-12-22T00:14:57;92941.72;;;0.81;79.75
64687;BME280;51113;53.646;-113.674;2023-12-22T00:17:26;92943.03;;;0.72;80.10
64687;BME280;51113;53.646;-113.674;2023-12-22T00:19:54;92938.78;;;0.66;80.34
64687;BME280;51113;53.646;-113.674;2023-12-22T00:22:27;92943.19;;;0.58;80.68
64687;BME280;51113;53.646;-113.674;2023-12-22T00:24:56;92942.00;;;0.61;80.08
64687;BME280;51113;53.646;-113.674;2023-12-22T00:27:24;92947.09;;;0.61;80.75
64687;BME280;51113;53.646;-113.674;2023-12-22T00:29:53;92944.06;;;0.52;80.96
64687;BME280;51113;53.646;-113.674;2023-12-22T00:32:22;92938.78;;;0.36;81.09
64687;BME280;51113;53.646;-113.674;2023-12-22T00:34:51;92956.56;;;0.42;81.67
64687;BME280;51113;53.646;-113.674;2023-12-22T00:37:19;92956.00;;;0.40;82.68
64687;BME280;51113;53.646;-113.674;2023-12-22T00:39:48;92952.88;;;0.38;82.30
64687;BME280;51113;53.646;-113.674;2023-12-22T00:42:18;92943.47;;;0.39;82.50
64687;BME280;51113;53.646;-113.674;2023-12-22T00:44:47;92945.44;;;0.37;82.79
64687;BME280;51113;53.646;-113.674;2023-12-22T00:47:15;92945.00;;;0.40;82.57
64687;BME280;51113;53.646;-113.674;2023-12-22T00:49:44;92944.22;;;0.39;82.48
64687;BME280;51113;53.646;-113.674;2023-12-22T00:52:13;92945.88;;;0.34;82.29
64687;BME280;51113;53.646;-113.674;2023-12-22T00:54:42;92938.28;;;0.27;82.46
64687;BME280;51113;53.646;-113.674;2023-12-22T00:57:10;92940.84;;;0.27;82.64
64687;BME280;51113;53.646;-113.674;2023-12-22T00:59:40;92929.94;;;0.20;82.44
64687;BME280;51113;53.646;-113.674;2023-12-22T01:02:16;92934.41;;;0.24;82.57
64687;BME280;51113;53.646;-113.674;2023-12-22T01:04:45;92933.63;;;0.24;82.47
64687;BME280;51113;53.646;-113.674;2023-12-22T01:07:14;92928.16;;;0.20;82.43
64687;BME280;51113;53.646;-113.674;2023-12-22T01:09:43;92923.28;;;0.19;82.17
64687;BME280;51113;53.646;-113.674;2023-12-22T01:12:12;92922.78;;;0.10;82.64
64687;BME280;51113;53.646;-113.674;2023-12-22T01:14:41;92919.09;;;0.06;82.66
64687;BME280;51113;53.646;-113.674;2023-12-22T01:17:09;92922.78;;;0.10;82.91
64687;BME280;51113;53.646;-113.674;2023-12-22T01:19:38;92918.88;;;0.08;82.83
64687;BME280;51113;53.646;-113.674;2023-12-22T01:22:06;92916.47;;;0.13;82.83
64687;BME280;51113;53.646;-113.674;2023-12-22T01:24:35;92921.44;;;0.08;82.97
64687;BME280;51113;53.646;-113.674;2023-12-22T01:27:07;92919.31;;;0.05;82.81
64687;BME280;51113;53.646;-113.674;2023-12-22T01:29:36;92912.94;;;-0.05;83.21
64687;BME280;51113;53.646;-113.674;2023-12-22T01:32:05;92908.19;;;-0.01;83.27
64687;BME280;51113;53.646;-113.674;2023-12-22T01:34:34;92897.13;;;0.05;83.07
64687;BME280;51113;53.646;-113.674;2023-12-22T01:37:03;92880.78;;;-0.06;83.00
64687;BME280;51113;53.646;-113.674;2023-12-22T01:39:32;92896.50;;;-0.09;83.49
64687;BME280;51113;53.646;-113.674;2023-12-22T01:42:00;92895.44;;;-0.01;83.35
64687;BME280;51113;53.646;-113.674;2023-12-22T01:44:29;92891.31;;;-0.02;83.20
64687;BME280;51113;53.646;-113.674;2023-12-22T01:46:58;92885.94;;;-0.12;83.19
64687;BME280;51113;53.646;-113.674;2023-12-22T01:49:27;92887.44;;;-0.05;83.19
64687;BME280;51113;53.646;-113.674;2023-12-22T01:51:57;92883.63;;;-0.14;83.18
64687;BME280;51113;53.646;-113.674;2023-12-22T01:54:27;92884.47;;;-0.20;83.78
64687;BME280;51113;53.646;-113.674;2023-12-22T01:56:55;92876.25;;;-0.22;83.85
64687;BME280;51113;53.646;-113.674;2023-12-22T01:59:24;92868.25;;;-0.25;84.14
64687;BME280;51113;53.646;-113.674;2023-12-22T02:01:53;92879.50;;;-0.33;84.39
64687;BME280;51113;53.646;-113.674;2023-12-22T02:04:22;92860.94;;;-0.40;84.36
64687;BME280;51113;53.646;-113.674;2023-12-22T02:06:52;92869.38;;;-0.40;84.44
64687;BME280;51113;53.646;-113.674;2023-12-22T02:09:21;92863.16;;;-0.44;84.46
64687;BME280;51113;53.646;-113.674;2023-12-22T02:11:49;92869.59;;;-0.41;84.70
64687;BME280;51113;53.646;-113.674;2023-12-22T02:14:18;92863.56;;;-0.47;84.63
64687;BME280;51113;53.646;-113.674;2023-12-22T02:17:29;92868.53;;;-0.52;84.75
64687;BME280;51113;53.646;-113.674;2023-12-22T02:19:56;92868.03;;;-0.60;85.46
64687;BME280;51113;53.646;-113.674;2023-12-22T02:22:28;92877.66;;;-0.62;85.49
64687;BME280;51113;53.646;-113.674;2023-12-22T02:24:58;92876.66;;;-0.61;85.67
64687;BME280;51113;53.646;-113.674;2023-12-22T02:28:17;92871.94;;;-0.58;85.31
64687;BME280;51113;53.646;-113.674;2023-12-22T02:33:24;92884.75;;;-0.46;85.59
64687;BME280;51113;53.646;-113.674;2023-12-22T02:36:00;92870.66;;;-0.49;85.29
64687;BME280;51113;53.646;-113.674;2023-12-22T02:38:31;92873.84;;;-0.53;85.58
64687;BME280;51113;53.646;-113.674;2023-12-22T02:41:02;92876.03;;;-0.57;85.39
64687;BME280;51113;53.646;-113.674;2023-12-22T02:43:30;92867.03;;;-0.59;85.79
64687;BME280;51113;53.646;-113.674;2023-12-22T02:45:59;92870.66;;;-0.67;85.63
64687;BME280;51113;53.646;-113.674;2023-12-22T02:48:28;92883.03;;;-0.71;85.96
64687;BME280;51113;53.646;-113.674;2023-12-22T02:50:57;92883.25;;;-0.72;85.99
64687;BME280;51113;53.646;-113.674;2023-12-22T02:53:25;92891.72;;;-0.78;86.44
64687;BME280;51113;53.646;-113.674;2023-12-22T02:55:54;92885.59;;;-0.95;86.48
64687;BME280;51113;53.646;-113.674;2023-12-22T02:58:23;92892.97;;;-0.87;86.59
64687;BME280;51113;53.646;-113.674;2023-12-22T03:00:52;92890.84;;;-0.90;86.97
64687;BME280;51113;53.646;-113.674;2023-12-22T03:03:21;92895.81;;;-0.95;87.20
64687;BME280;51113;53.646;-113.674;2023-12-22T03:05:49;92897.63;;;-1.03;87.23
64687;BME280;51113;53.646;-113.674;2023-12-22T03:08:19;92889.81;;;-1.08;87.43
64687;BME280;51113;53.646;-113.674;2023-12-22T03:10:48;92897.47;;;-1.08;87.51
64687;BME280;51113;53.646;-113.674;2023-12-22T03:13:16;92892.00;;;-1.11;87.34
64687;BME280;51113;53.646;-113.674;2023-12-22T03:15:45;92888.53;;;-1.17;87.48
64687;BME280;51113;53.646;-113.674;2023-12-22T03:18:15;92887.00;;;-1.24;87.49
64687;BME280;51113;53.646;-113.674;2023-12-22T03:20:44;92875.53;;;-1.34;87.84
64687;BME280;51113;53.646;-113.674;2023-12-22T03:23:12;92883.94;;;-1.33;88.15
64687;BME280;51113;53.646;-113.674;2023-12-22T03:25:44;92878.06;;;-1.34;88.24
64687;BME280;51113;53.646;-113.674;2023-12-22T03:28:13;92873.38;;;-1.37;88.37
64687;BME280;51113;53.646;-113.674;2023-12-22T03:30:42;92863.41;;;-1.38;88.47
64687;BME280;51113;53.646;-113.674;2023-12-22T03:33:11;92864.75;;;-1.36;88.11
64687;BME280;51113;53.646;-113.674;2023-12-22T03:35:40;92866.59;;;-1.43;88.18
64687;BME280;51113;53.646;-113.674;2023-12-22T03:38:08;92862.78;;;-1.34;88.13
64687;BME280;51113;53.646;-113.674;2023-12-22T03:40:37;92864.03;;;-1.43;88.58
64687;BME280;51113;53.646;-113.674;2023-12-22T03:43:06;92865.22;;;-1.45;88.32
64687;BME280;51113;53.646;-113.674;2023-12-22T03:45:35;92868.56;;;-1.45;88.28
64687;BME280;51113;53.646;-113.674;2023-12-22T03:48:04;92871.13;;;-1.51;89.56
64687;BME280;51113;53.646;-113.674;2023-12-22T03:50:32;92858.00;;;-1.48;89.40
64687;BME280;51113;53.646;-113.674;2023-12-22T03:53:01;92861.91;;;-1.46;88.94
64687;BME280;51113;53.646;-113.674;2023-12-22T03:55:30;92867.81;;;-1.52;88.71
64687;BME280;51113;53.646;-113.674;2023-12-22T03:57:59;92853.16;;;-1.56;88.85
64687;BME280;51113;53.646;-113.674;2023-12-22T04:00:27;92853.38;;;-1.58;89.44
64687;BME280;51113;53.646;-113.674;2023-12-22T04:02:56;92856.69;;;-1.57;89.62
64687;BME280;51113;53.646;-113.674;2023-12-22T04:05:25;92851.25;;;-1.61;89.19
64687;BME280;51113;53.646;-113.674;2023-12-22T04:07:53;92845.63;;;-1.70;89.25
64687;BME280;51113;53.646;-113.674;2023-12-22T04:10:22;92858.72;;;-1.66;89.37
64687;BME280;51113;53.646;-113.674;2023-12-22T04:12:51;92859.94;;;-1.75;89.81
64687;BME280;51113;53.646;-113.674;2023-12-22T04:15:20;92848.19;;;-1.76;89.85
64687;BME280;51113;53.646;-113.674;2023-12-22T04:17:48;92840.41;;;-1.81;90.47
64687;BME280;51113;53.646;-113.674;2023-12-22T04:20:18;92845.50;;;-1.81;90.15
64687;BME280;51113;53.646;-113.674;2023-12-22T04:22:47;92840.81;;;-1.84;89.98
64687;BME280;51113;53.646;-113.674;2023-12-22T04:25:16;92815.88;;;-2.01;90.74
64687;BME280;51113;53.646;-113.674;2023-12-22T04:27:46;92845.16;;;-1.91;90.56
64687;BME280;51113;53.646;-113.674;2023-12-22T04:30:15;92839.09;;;-1.90;90.64
64687;BME280;51113;53.646;-113.674;2023-12-22T04:32:44;92823.25;;;-1.92;90.98
64687;BME280;51113;53.646;-113.674;2023-12-22T04:35:12;92826.56;;;-1.92;90.80
64687;BME280;51113;53.646;-113.674;2023-12-22T04:37:41;92830.31;;;-1.94;90.86
64687;BME280;51113;53.646;-113.674;2023-12-22T04:40:10;92833.78;;;-1.89;90.93
64687;BME280;51113;53.646;-113.674;2023-12-22T04:42:39;92840.47;;;-1.94;90.95
64687;BME280;51113;53.646;-113.674;2023-12-22T04:45:08;92836.00;;;-1.99;91.45
64687;BME280;51113;53.646;-113.674;2023-12-22T04:47:36;92826.44;;;-2.04;91.21
64687;BME280;51113;53.646;-113.674;2023-12-22T04:50:06;92816.66;;;-2.00;91.48
64687;BME280;51113;53.646;-113.674;2023-12-22T04:52:34;92825.66;;;-2.04;91.54
64687;BME280;51113;53.646;-113.674;2023-12-22T04:55:03;92826.84;;;-2.07;91.12
64687;BME280;51113;53.646;-113.674;2023-12-22T04:57:32;92830.56;;;-2.03;91.69
64687;BME280;51113;53.646;-113.674;2023-12-22T05:00:01;92824.72;;;-2.10;91.71
64687;BME280;51113;53.646;-113.674;2023-12-22T05:02:30;92824.72;;;-2.10;91.64
64687;BME280;51113;53.646;-113.674;2023-12-22T05:04:59;92837.06;;;-2.13;91.94
64687;BME280;51113;53.646;-113.674;2023-12-22T05:07:29;92833.19;;;-2.22;91.78
64687;BME280;51113;53.646;-113.674;2023-12-22T05:09:58;92830.84;;;-2.24;92.23
64687;BME280;51113;53.646;-113.674;2023-12-22T05:12:27;92827.72;;;-2.26;92.25
64687;BME280;51113;53.646;-113.674;2023-12-22T05:14:55;92821.69;;;-2.32;92.83
64687;BME280;51113;53.646;-113.674;2023-12-22T05:17:24;92815.84;;;-2.32;92.68
64687;BME280;51113;53.646;-113.674;2023-12-22T05:19:53;92814.84;;;-2.31;92.91
64687;BME280;51113;53.646;-113.674;2023-12-22T05:22:21;92811.56;;;-2.38;92.74
64687;BME280;51113;53.646;-113.674;2023-12-22T05:24:50;92807.66;;;-2.41;92.73
64687;BME280;51113;53.646;-113.674;2023-12-22T05:27:19;92820.41;;;-2.47;92.55
64687;BME280;51113;53.646;-113.674;2023-12-22T05:29:47;92818.47;;;-2.52;93.40
64687;BME280;51113;53.646;-113.674;2023-12-22T05:32:16;92807.75;;;-2.61;93.27
64687;BME280;51113;53.646;-113.674;2023-12-22T05:34:45;92815.94;;;-2.58;93.40
64687;BME280;51113;53.646;-113.674;2023-12-22T05:37:13;92795.81;;;-2.60;93.61
64687;BME280;51113;53.646;-113.674;2023-12-22T05:39:42;92793.44;;;-2.55;93.63
64687;BME280;51113;53.646;-113.674;2023-12-22T05:42:12;92784.41;;;-2.44;93.25
64687;BME280;51113;53.646;-113.674;2023-12-22T05:44:41;92775.03;;;-2.44;93.18
64687;BME280;51113;53.646;-113.674;2023-12-22T05:47:09;92774.06;;;-2.49;92.89
64687;BME280;51113;53.646;-113.674;2023-12-22T05:49:40;92771.19;;;-2.59;93.34
64687;BME280;51113;53.646;-113.674;2023-12-22T05:52:09;92783.34;;;-2.68;93.60
64687;BME280;51113;53.646;-113.674;2023-12-22T05:54:38;92784.53;;;-2.71;93.96
64687;BME280;51113;53.646;-113.674;2023-12-22T05:57:07;92783.16;;;-2.73;93.68
64687;BME280;51113;53.646;-113.674;2023-12-22T05:59:35;92791.38;;;-2.78;93.68
64687;BME280;51113;53.646;-113.674;2023-12-22T06:02:04;92782.22;;;-2.79;94.39
64687;BME280;51113;53.646;-113.674;2023-12-22T06:04:33;92784.94;;;-2.74;94.41
64687;BME280;51113;53.646;-113.674;2023-12-22T06:07:03;92780.25;;;-2.77;94.32
64687;BME280;51113;53.646;-113.674;2023-12-22T06:09:32;92779.44;;;-2.71;93.96
64687;BME280;51113;53.646;-113.674;2023-12-22T06:12:01;92763.03;;;-2.75;94.34
64687;BME280;51113;53.646;-113.674;2023-12-22T06:14:30;92781.00;;;-2.70;94.13
64687;BME280;51113;53.646;-113.674;2023-12-22T06:17:00;92780.19;;;-2.64;94.15
64687;BME280;51113;53.646;-113.674;2023-12-22T06:19:29;92778.44;;;-2.63;93.47
64687;BME280;51113;53.646;-113.674;2023-12-22T06:21:58;92773.56;;;-2.65;93.79
64687;BME280;51113;53.646;-113.674;2023-12-22T06:24:28;92770.03;;;-2.64;93.34
64687;BME280;51113;53.646;-113.674;2023-12-22T06:26:57;92766.13;;;-2.66;93.48
64687;BME280;51113;53.646;-113.674;2023-12-22T06:29:25;92767.31;;;-2.69;93.79
64687;BME280;51113;53.646;-113.674;2023-12-22T06:31:57;92764.19;;;-2.71;94.19
64687;BME280;51113;53.646;-113.674;2023-12-22T06:34:26;92767.31;;;-2.69;93.46
64687;BME280;51113;53.646;-113.674;2023-12-22T06:36:55;92762.63;;;-2.72;93.33
64687;BME280;51113;53.646;-113.674;2023-12-22T06:39:24;92779.44;;;-2.71;93.53
64687;BME280;51113;53.646;-113.674;2023-12-22T06:41:53;92779.44;;;-2.71;93.80
64687;BME280;51113;53.646;-113.674;2023-12-22T06:44:21;92776.53;;;-2.74;93.63
64687;BME280;51113;53.646;-113.674;2023-12-22T06:46:50;92768.69;;;-2.73;93.67
64687;BME280;51113;53.646;-113.674;2023-12-22T06:49:19;92768.53;;;-2.78;93.53
64687;BME280;51113;53.646;-113.674;2023-12-22T06:51:48;92764.44;;;-2.79;93.99
64687;BME280;51113;53.646;-113.674;2023-12-22T06:54:16;92760.34;;;-2.86;94.13
64687;BME280;51113;53.646;-113.674;2023-12-22T06:56:45;92759.41;;;-2.92;93.82
64687;BME280;51113;53.646;-113.674;2023-12-22T06:59:14;92757.66;;;-2.98;94.78
64687;BME280;51113;53.646;-113.674;2023-12-22T07:01:43;92756.88;;;-2.99;94.34
64687;BME280;51113;53.646;-113.674;2023-12-22T07:07:52;92741.09;;;-3.07;95.14
64687;BME280;51113;53.646;-113.674;2023-12-22T07:10:21;92745.75;;;-2.98;95.10
64687;BME280;51113;53.646;-113.674;2023-12-22T07:12:50;92738.91;;;-2.97;94.30
64687;BME280;51113;53.646;-113.674;2023-12-22T07:15:20;92739.72;;;-3.03;94.22
64687;BME280;51113;53.646;-113.674;2023-12-22T07:17:49;92732.72;;;-3.14;94.82
64687;BME280;51113;53.646;-113.674;2023-12-22T07:20:18;92719.84;;;-3.26;94.40
64687;BME280;51113;53.646;-113.674;2023-12-22T07:22:48;92719.81;;;-3.13;95.16
64687;BME280;51113;53.646;-113.674;2023-12-22T07:25:17;92723.13;;;-3.12;94.99
64687;BME280;51113;53.646;-113.674;2023-12-22T07:27:47;92727.84;;;-3.16;95.09
64687;BME280;51113;53.646;-113.674;2023-12-22T07:30:16;92721.41;;;-3.18;94.75
64687;BME280;51113;53.646;-113.674;2023-12-22T07:32:46;92713.97;;;-3.20;95.22
64687;BME280;51113;53.646;-113.674;2023-12-22T07:35:20;92706.75;;;-3.16;95.49
64687;BME280;51113;53.646;-113.674;2023-12-22T07:37:48;92702.22;;;-3.08;95.22
64687;BME280;51113;53.646;-113.674;2023-12-22T07:40:18;92699.47;;;-3.06;94.73
64687;BME280;51113;53.646;-113.674;2023-12-22T07:42:48;92694.59;;;-3.08;95.27
64687;BME280;51113;53.646;-113.674;2023-12-22T07:45:18;92681.91;;;-3.08;95.01
64687;BME280;51113;53.646;-113.674;2023-12-22T07:47:48;92679.94;;;-2.99;95.36
64687;BME280;51113;53.646;-113.674;2023-12-22T07:50:17;92685.97;;;-3.00;94.88
64687;BME280;51113;53.646;-113.674;2023-12-22T07:52:47;92676.81;;;-3.01;94.81
64687;BME280;51113;53.646;-113.674;2023-12-22T07:55:15;92671.56;;;-3.06;95.35
64687;BME280;51113;53.646;-113.674;2023-12-22T07:57:44;92665.31;;;-3.10;94.91
64687;BME280;51113;53.646;-113.674;2023-12-22T08:00:14;92665.91;;;-3.08;95.19
64687;BME280;51113;53.646;-113.674;2023-12-22T08:02:43;92662.59;;;-3.09;95.09
64687;BME280;51113;53.646;-113.674;2023-12-22T08:05:13;92654.03;;;-3.14;94.93
64687;BME280;51113;53.646;-113.674;2023-12-22T08:07:42;92647.19;;;-3.14;95.21
64687;BME280;51113;53.646;-113.674;2023-12-22T08:10:10;92662.06;;;-3.24;95.29
64687;BME280;51113;53.646;-113.674;2023-12-22T08:12:39;92662.28;;;-3.32;95.66
64687;BME280;51113;53.646;-113.674;2023-12-22T08:15:08;92646.16;;;-3.51;95.36
64687;BME280;51113;53.646;-113.674;2023-12-22T08:17:55;92659.41;;;-3.49;95.87
64687;BME280;51113;53.646;-113.674;2023-12-22T08:20:24;92649.25;;;-3.42;95.98
64687;BME280;51113;53.646;-113.674;2023-12-22T08:22:58;92653.56;;;-3.56;95.78
64687;BME280;51113;53.646;-113.674;2023-12-22T08:25:33;92650.47;;;-3.65;95.78
64687;BME280;51113;53.646;-113.674;2023-12-22T08:28:02;92655.75;;;-3.73;96.30
64687;BME280;51113;53.646;-113.674;2023-12-22T08:30:31;92653.63;;;-3.82;96.76
64687;BME280;51113;53.646;-113.674;2023-12-22T08:32:59;92673.53;;;-3.73;97.13
64687;BME280;51113;53.646;-113.674;2023-12-22T08:35:28;92665.91;;;-3.66;97.65
64687;BME280;51113;53.646;-113.674;2023-12-22T08:37:57;92676.63;;;-3.64;96.87
64687;BME280;51113;53.646;-113.674;2023-12-22T08:40:26;92671.53;;;-3.58;97.52
64687;BME280;51113;53.646;-113.674;2023-12-22T08:42:55;92663.53;;;-3.54;96.80
64687;BME280;51113;53.646;-113.674;2023-12-22T08:45:31;92647.13;;;-3.52;96.33
64687;BME280;51113;53.646;-113.674;2023-12-22T08:47:59;92657.84;;;-3.50;96.47
64687;BME280;51113;53.646;-113.674;2023-12-22T08:50:28;92653.59;;;-3.63;96.44
64687;BME280;51113;53.646;-113.674;2023-12-22T08:52:57;92659.06;;;-3.59;95.93
64687;BME280;51113;53.646;-113.674;2023-12-22T08:55:26;92660.44;;;-3.63;95.92
64687;BME280;51113;53.646;-113.674;2023-12-22T08:57:54;92652.44;;;-3.67;95.88
64687;BME280;51113;53.646;-113.674;2023-12-22T09:00:29;92650.09;;;-3.68;96.29
64687;BME280;51113;53.646;-113.674;2023-12-22T09:02:57;92640.28;;;-3.51;96.02
64687;BME280;51113;53.646;-113.674;2023-12-22T09:05:26;92641.66;;;-3.49;95.55
64687;BME280;51113;53.646;-113.674;2023-12-22T09:07:55;92638.31;;;-3.43;95.86
64687;BME280;51113;53.646;-113.674;2023-12-22T09:10:24;92637.91;;;-3.40;95.33
64687;BME280;51113;53.646;-113.674;2023-12-22T09:12:53;92644.19;;;-3.49;94.51
64687;BME280;51113;53.646;-113.674;2023-12-22T09:15:22;92634.88;;;-3.68;95.41
64687;BME280;51113;53.646;-113.674;2023-12-22T09:17:51;92618.88;;;-3.62;96.00
64687;BME280;51113;53.646;-113.674;2023-12-22T09:20:22;92625.06;;;-3.51;96.51
64687;BME280;51113;53.646;-113.674;2023-12-22T09:22:51;92619.81;;;-3.50;95.58
64687;BME280;51113;53.646;-113.674;2023-12-22T09:25:19;92621.78;;;-3.59;95.48
64687;BME280;51113;53.646;-113.674;2023-12-22T09:27:48;92631.69;;;-3.44;95.66
64687;BME280;51113;53.646;-113.674;2023-12-22T09:30:18;92621.53;;;-3.44;95.58
64687;BME280;51113;53.646;-113.674;2023-12-22T09:32:47;92624.66;;;-3.42;95.28
64687;BME280;51113;53.646;-113.674;2023-12-22T09:35:15;92634.47;;;-3.65;95.08
64687;BME280;51113;53.646;-113.674;2023-12-22T09:37:45;92629.06;;;-3.75;95.08
64687;BME280;51113;53.646;-113.674;2023-12-22T09:40:14;92625.75;;;-3.89;95.22
64687;BME280;51113;53.646;-113.674;2023-12-22T09:42:43;92624.59;;;-3.86;96.11
64687;BME280;51113;53.646;-113.674;2023-12-22T09:45:17;92629.22;;;-3.70;96.68
64687;BME280;51113;53.646;-113.674;2023-12-22T09:47:48;92640.53;;;-3.66;96.47
64687;BME280;51113;53.646;-113.674;2023-12-22T09:50:20;92641.72;;;-3.69;96.46
64687;BME280;51113;53.646;-113.674;2023-12-22T09:52:50;92623.59;;;-3.79;96.38
64687;BME280;51113;53.646;-113.674;2023-12-22T09:55:21;92631.19;;;-3.72;96.66
64687;BME280;51113;53.646;-113.674;2023-12-22T09:57:51;92631.38;;;-3.67;96.71
64687;BME280;51113;53.646;-113.674;2023-12-22T10:00:21;92629.41;;;-3.65;95.82
64687;BME280;51113;53.646;-113.674;2023-12-22T10:02:51;92632.53;;;-3.63;95.47
64687;BME280;51113;53.646;-113.674;2023-12-22T10:05:19;92627.09;;;-3.73;96.23
64687;BME280;51113;53.646;-113.674;2023-12-22T10:07:49;92631.00;;;-3.71;96.40
64687;BME280;51113;53.646;-113.674;2023-12-22T10:10:20;92617.72;;;-3.66;96.27
64687;BME280;51113;53.646;-113.674;2023-12-22T10:12:49;92617.28;;;-3.56;96.44
64687;BME280;51113;53.646;-113.674;2023-12-22T10:15:21;92603.03;;;-3.51;95.64
64687;BME280;51113;53.646;-113.674;2023-12-22T10:17:55;92600.88;;;-3.54;95.42
64687;BME280;51113;53.646;-113.674;2023-12-22T10:20:24;92594.06;;;-3.53;95.28
64687;BME280;51113;53.646;-113.674;2023-12-22T10:22:53;92602.84;;;-3.56;95.51
64687;BME280;51113;53.646;-113.674;2023-12-22T10:25:27;92604.44;;;-3.62;95.02
64687;BME280;51113;53.646;-113.674;2023-12-22T10:27:57;92601.28;;;-3.57;95.16
64687;BME280;51113;53.646;-113.674;2023-12-22T10:30:27;92600.34;;;-3.69;95.66
64687;BME280;51113;53.646;-113.674;2023-12-22T10:32:56;92606.00;;;-3.67;95.21
64687;BME280;51113;53.646;-113.674;2023-12-22T10:35:25;92589.81;;;-3.66;95.89
64687;BME280;51113;53.646;-113.674;2023-12-22T10:37:55;92590.00;;;-3.61;95.37
64687;BME280;51113;53.646;-113.674;2023-12-22T10:40:26;92584.88;;;-3.54;95.36
64687;BME280;51113;53.646;-113.674;2023-12-22T10:42:56;92580.97;;;-3.50;95.48
64687;BME280;51113;53.646;-113.674;2023-12-22T10:45:24;92578.44;;;-3.50;94.78
64687;BME280;51113;53.646;-113.674;2023-12-22T10:47:54;92577.09;;;-3.60;94.79
64687;BME280;51113;53.646;-113.674;2023-12-22T10:50:23;92575.72;;;-3.55;95.11
64687;BME280;51113;53.646;-113.674;2023-12-22T10:52:53;92581.38;;;-3.53;95.39
64687;BME280;51113;53.646;-113.674;2023-12-22T10:55:21;92577.31;;;-3.61;95.09
64687;BME280;51113;53.646;-113.674;2023-12-22T10:57:50;92569.16;;;-3.70;95.18
64687;BME280;51113;53.646;-113.674;2023-12-22T11:00:20;92561.72;;;-3.71;95.34
64687;BME280;51113;53.646;-113.674;2023-12-22T11:02:49;92554.53;;;-3.74;95.76
64687;BME280;51113;53.646;-113.674;2023-12-22T11:05:27;92561.16;;;-3.73;95.80
64687;BME280;51113;53.646;-113.674;2023-12-22T11:07:59;92567.59;;;-3.71;95.69
64687;BME280;51113;53.646;-113.674;2023-12-22T11:10:31;92551.22;;;-3.75;95.09
64687;BME280;51113;53.646;-113.674;2023-12-22T11:13:00;92545.38;;;-3.75;95.90
64687;BME280;51113;53.646;-113.674;2023-12-22T11:15:32;92535.03;;;-3.80;95.65
64687;BME280;51113;53.646;-113.674;2023-12-22T11:18:02;92549.47;;;-3.74;95.24
64687;BME280;51113;53.646;-113.674;2023-12-22T11:20:32;92542.06;;;-3.82;95.33
64687;BME280;51113;53.646;-113.674;2023-12-22T11:23:02;92540.13;;;-3.80;95.58
64687;BME280;51113;53.646;-113.674;2023-12-22T11:25:32;92523.88;;;-3.66;95.78
64687;BME280;51113;53.646;-113.674;2023-12-22T11:28:04;92521.09;;;-3.58;94.82
64687;BME280;51113;53.646;-113.674;2023-12-22T11:30:34;92518.16;;;-3.55;95.08
64687;BME280;51113;53.646;-113.674;2023-12-22T11:33:05;92514.63;;;-3.54;94.49
64687;BME280;51113;53.646;-113.674;2023-12-22T11:35:34;92527.53;;;-3.55;94.76
64687;BME280;51113;53.646;-113.674;2023-12-22T11:38:05;92509.81;;;-3.62;94.25
64687;BME280;51113;53.646;-113.674;2023-12-22T11:40:34;92502.59;;;-3.65;95.07
64687;BME280;51113;53.646;-113.674;2023-12-22T11:43:03;92503.75;;;-3.61;94.74
64687;BME280;51113;53.646;-113.674;2023-12-22T11:45:32;92495.94;;;-3.60;94.77
64687;BME280;51113;53.646;-113.674;2023-12-22T11:48:10;92496.50;;;-3.58;94.58
64687;BME280;51113;53.646;-113.674;2023-12-22T11:50:39;92497.50;;;-3.59;94.89
64687;BME280;51113;53.646;-113.674;2023-12-22T11:53:19;92489.56;;;-3.75;94.67
64687;BME280;51113;53.646;-113.674;2023-12-22T11:56:07;92478.78;;;-3.64;95.09
64687;BME280;51113;53.646;-113.674;2023-12-22T11:58:43;92467.22;;;-3.53;94.97
64687;BME280;51113;53.646;-113.674;2023-12-22T12:01:21;92471.50;;;-3.54;94.51
64687;BME280;51113;53.646;-113.674;2023-12-22T12:03:53;92458.25;;;-3.56;94.39
64687;BME280;51113;53.646;-113.674;2023-12-22T12:09:01;92442.25;;;-3.56;94.59
64687;BME280;51113;53.646;-113.674;2023-12-22T12:14:31;92440.78;;;-3.39;93.83
64687;BME280;51113;53.646;-113.674;2023-12-22T12:17:07;92425.16;;;-3.36;94.16
64687;BME280;51113;53.646;-113.674;2023-12-22T12:19:39;92429.41;;;-3.30;94.38
64687;BME280;51113;53.646;-113.674;2023-12-22T12:22:14;92425.50;;;-3.33;93.82
64687;BME280;51113;53.646;-113.674;2023-12-22T12:24:43;92425.09;;;-3.30;94.03
64687;BME280;51113;53.646;-113.674;2023-12-22T12:27:20;92413.56;;;-3.26;93.70
64687;BME280;51113;53.646;-113.674;2023-12-22T12:29:50;92421.00;;;-3.31;93.60
64687;BME280;51113;53.646;-113.674;2023-12-22T12:32:23;92409.94;;;-3.36;93.78
64687;BME280;51113;53.646;-113.674;2023-12-22T12:34:53;92395.47;;;-3.36;94.05
64687;BME280;51113;53.646;-113.674;2023-12-22T12:37:25;92384.84;;;-3.26;94.10
64687;BME280;51113;53.646;-113.674;2023-12-22T12:39:57;92389.31;;;-3.21;93.70
64687;BME280;51113;53.646;-113.674;2023-12-22T12:42:29;92387.50;;;-3.14;93.23
64687;BME280;51113;53.646;-113.674;2023-12-22T12:44:59;92386.50;;;-3.13;93.02
64687;BME280;51113;53.646;-113.674;2023-12-22T12:47:28;92392.38;;;-3.13;93.01
64687;BME280;51113;53.646;-113.674;2023-12-22T12:49:58;92393.03;;;-3.24;93.24
64687;BME280;51113;53.646;-113.674;2023-12-22T12:52:27;92417.22;;;-3.21;93.58
64687;BME280;51113;53.646;-113.674;2023-12-22T12:54:56;92430.06;;;-3.16;93.55